sensor_id;sensor_type;location;lat;lon;timestamp;P1;durP1;ratioP1;P2;durP2;ratioP2
53036;SDS011;38924;52.134;4.666;2022-08-24T00:01:03;605.28;;;559.45;;
53036;SDS011;38924;52.134;4.666;2022-08-24T00:03:28;675.47;;;623.30;;
53036;SDS011;38924;52.134;4.666;2022-08-24T00:05:54;751.60;;;692.50;;
53036;SDS011;38924;52.134;4.666;2022-08-24T00:08:19;625.40;;;576.58;;
53036;SDS011;38924;52.134;4.666;2022-08-24T00:10:45;628.10;;;580.60;;
53036;SDS011;38924;52.134;4.666;2022-08-24T00:13:12;600.80;;;554.03;;
53036;SDS011;38924;52.134;4.666;2022-08-24T00:15:38;545.30;;;503.30;;
53036;SDS011;38924;52.134;4.666;2022-08-24T00:18:04;603.47;;;556.70;;
53036;SDS011;38924;52.134;4.666;2022-08-24T00:20:30;656.00;;;604.67;;
53036;SDS011;38924;52.134;4.666;2022-08-24T00:22:56;620.72;;;573.95;;
53036;SDS011;38924;52.134;4.666;2022-08-24T00:25:21;605.30;;;559.25;;
53036;SDS011;38924;52.134;4.666;2022-08-24T00:27:47;631.65;;;582.88;;
53036;SDS011;38924;52.134;4.666;2022-08-24T00:30:14;624.75;;;576.97;;
53036;SDS011;38924;52.134;4.666;2022-08-24T00:32:41;635.08;;;587.60;;
53036;SDS011;38924;52.134;4.666;2022-08-24T00:35:07;648.35;;;597.70;;
53036;SDS011;38924;52.134;4.666;2022-08-24T00:37:34;630.83;;;582.53;;
53036;SDS011;38924;52.134;4.666;2022-08-24T00:40:00;532.80;;;493.48;;
53036;SDS011;38924;52.134;4.666;2022-08-24T00:42:25;693.30;;;638.88;;
53036;SDS011;38924;52.134;4.666;2022-08-24T00:44:51;633.08;;;584.83;;
53036;SDS011;38924;52.134;4.666;2022-08-24T00:47:21;643.28;;;593.85;;
53036;SDS011;38924;52.134;4.666;2022-08-24T00:49:52;494.80;;;458.80;;
53036;SDS011;38924;52.134;4.666;2022-08-24T00:52:23;601.42;;;556.65;;
53036;SDS011;38924;52.134;4.666;2022-08-24T00:54:52;529.83;;;491.08;;
53036;SDS011;38924;52.134;4.666;2022-08-24T00:57:19;696.03;;;642.30;;
53036;SDS011;38924;52.134;4.666;2022-08-24T00:59:47;505.50;;;468.42;;
53036;SDS011;38924;52.134;4.666;2022-08-24T01:02:18;560.50;;;519.53;;
53036;SDS011;38924;52.134;4.666;2022-08-24T01:04:52;597.38;;;553.67;;
53036;SDS011;38924;52.134;4.666;2022-08-24T01:07:19;601.60;;;556.22;;
53036;SDS011;38924;52.134;4.666;2022-08-24T01:09:50;631.75;;;583.85;;
53036;SDS011;38924;52.134;4.666;2022-08-24T01:12:19;607.22;;;561.65;;
53036;SDS011;38924;52.134;4.666;2022-08-24T01:14:44;486.98;;;451.67;;
53036;SDS011;38924;52.134;4.666;2022-08-24T01:17:13;673.58;;;621.60;;
53036;SDS011;38924;52.134;4.666;2022-08-24T01:19:58;608.05;;;563.70;;
53036;SDS011;38924;52.134;4.666;2022-08-24T01:22:41;566.60;;;525.10;;
53036;SDS011;38924;52.134;4.666;2022-08-24T01:25:10;556.55;;;515.80;;
53036;SDS011;38924;52.134;4.666;2022-08-24T01:27:36;585.63;;;542.97;;
53036;SDS011;38924;52.134;4.666;2022-08-24T01:30:03;607.92;;;562.38;;
53036;SDS011;38924;52.134;4.666;2022-08-24T01:32:29;551.75;;;511.45;;
53036;SDS011;38924;52.134;4.666;2022-08-24T01:34:55;531.17;;;492.88;;
53036;SDS011;38924;52.134;4.666;2022-08-24T01:37:21;660.45;;;609.65;;
53036;SDS011;38924;52.134;4.666;2022-08-24T01:39:51;600.60;;;555.90;;
53036;SDS011;38924;52.134;4.666;2022-08-24T01:42:17;639.97;;;592.70;;
53036;SDS011;38924;52.134;4.666;2022-08-24T01:44:43;664.78;;;615.15;;
53036;SDS011;38924;52.134;4.666;2022-08-24T01:47:10;643.10;;;595.40;;
53036;SDS011;38924;52.134;4.666;2022-08-24T01:49:37;570.97;;;529.20;;
53036;SDS011;38924;52.134;4.666;2022-08-24T01:52:05;590.72;;;547.00;;
53036;SDS011;38924;52.134;4.666;2022-08-24T01:54:35;519.00;;;480.98;;
53036;SDS011;38924;52.134;4.666;2022-08-24T01:57:01;592.22;;;547.90;;
53036;SDS011;38924;52.134;4.666;2022-08-24T01:59:31;526.78;;;488.70;;
53036;SDS011;38924;52.134;4.666;2022-08-24T02:01:59;553.38;;;512.58;;
53036;SDS011;38924;52.134;4.666;2022-08-24T02:04:28;512.53;;;475.25;;
53036;SDS011;38924;52.134;4.666;2022-08-24T02:06:55;549.65;;;508.65;;
53036;SDS011;38924;52.134;4.666;2022-08-24T02:09:20;656.88;;;605.60;;
53036;SDS011;38924;52.134;4.666;2022-08-24T02:11:46;624.72;;;577.03;;
53036;SDS011;38924;52.134;4.666;2022-08-24T02:14:12;597.53;;;553.25;;
53036;SDS011;38924;52.134;4.666;2022-08-24T02:16:38;685.88;;;633.20;;
53036;SDS011;38924;52.134;4.666;2022-08-24T02:19:04;744.15;;;685.83;;
53036;SDS011;38924;52.134;4.666;2022-08-24T02:21:30;641.72;;;592.35;;
53036;SDS011;38924;52.134;4.666;2022-08-24T02:23:57;620.38;;;571.80;;
53036;SDS011;38924;52.134;4.666;2022-08-24T02:26:23;668.72;;;616.00;;
53036;SDS011;38924;52.134;4.666;2022-08-24T02:28:49;577.65;;;534.25;;
53036;SDS011;38924;52.134;4.666;2022-08-24T02:31:14;662.22;;;609.95;;
53036;SDS011;38924;52.134;4.666;2022-08-24T02:33:42;636.83;;;588.92;;
53036;SDS011;38924;52.134;4.666;2022-08-24T02:36:08;722.20;;;664.92;;
53036;SDS011;38924;52.134;4.666;2022-08-24T02:38:35;779.35;;;716.85;;
53036;SDS011;38924;52.134;4.666;2022-08-24T02:41:02;651.55;;;601.05;;
53036;SDS011;38924;52.134;4.666;2022-08-24T02:43:29;572.35;;;528.85;;
53036;SDS011;38924;52.134;4.666;2022-08-24T02:45:54;674.72;;;621.55;;
53036;SDS011;38924;52.134;4.666;2022-08-24T02:48:21;691.65;;;637.67;;
53036;SDS011;38924;52.134;4.666;2022-08-24T02:50:48;661.50;;;609.83;;
53036;SDS011;38924;52.134;4.666;2022-08-24T02:53:18;758.60;;;696.90;;
53036;SDS011;38924;52.134;4.666;2022-08-24T02:55:44;650.08;;;599.22;;
53036;SDS011;38924;52.134;4.666;2022-08-24T02:58:13;528.70;;;488.58;;
53036;SDS011;38924;52.134;4.666;2022-08-24T03:00:40;518.03;;;479.27;;
53036;SDS011;38924;52.134;4.666;2022-08-24T03:03:06;695.28;;;640.22;;
53036;SDS011;38924;52.134;4.666;2022-08-24T03:05:34;572.75;;;530.22;;
53036;SDS011;38924;52.134;4.666;2022-08-24T03:08:00;611.92;;;564.90;;
53036;SDS011;38924;52.134;4.666;2022-08-24T03:10:27;698.08;;;642.17;;
53036;SDS011;38924;52.134;4.666;2022-08-24T03:12:53;560.08;;;518.47;;
53036;SDS011;38924;52.134;4.666;2022-08-24T03:15:19;607.67;;;561.63;;
53036;SDS011;38924;52.134;4.666;2022-08-24T03:17:48;672.83;;;620.92;;
53036;SDS011;38924;52.134;4.666;2022-08-24T03:20:16;576.95;;;532.17;;
53036;SDS011;38924;52.134;4.666;2022-08-24T03:22:43;578.53;;;533.78;;
53036;SDS011;38924;52.134;4.666;2022-08-24T03:25:09;662.45;;;611.63;;
53036;SDS011;38924;52.134;4.666;2022-08-24T03:27:35;597.05;;;552.20;;
53036;SDS011;38924;52.134;4.666;2022-08-24T03:30:03;643.33;;;594.45;;
53036;SDS011;38924;52.134;4.666;2022-08-24T03:32:31;632.30;;;584.78;;
53036;SDS011;38924;52.134;4.666;2022-08-24T03:34:57;629.63;;;581.50;;
53036;SDS011;38924;52.134;4.666;2022-08-24T03:37:23;490.70;;;454.83;;
53036;SDS011;38924;52.134;4.666;2022-08-24T03:39:50;600.42;;;555.72;;
53036;SDS011;38924;52.134;4.666;2022-08-24T03:42:16;593.70;;;548.88;;
53036;SDS011;38924;52.134;4.666;2022-08-24T03:44:42;556.33;;;515.85;;
53036;SDS011;38924;52.134;4.666;2022-08-24T03:47:08;560.53;;;519.38;;
53036;SDS011;38924;52.134;4.666;2022-08-24T03:49:38;540.78;;;501.27;;
53036;SDS011;38924;52.134;4.666;2022-08-24T03:52:04;520.10;;;482.48;;
53036;SDS011;38924;52.134;4.666;2022-08-24T03:54:30;526.00;;;487.38;;
53036;SDS011;38924;52.134;4.666;2022-08-24T03:56:56;500.20;;;464.23;;
53036;SDS011;38924;52.134;4.666;2022-08-24T03:59:24;557.45;;;516.67;;
53036;SDS011;38924;52.134;4.666;2022-08-24T04:01:52;560.63;;;516.58;;
53036;SDS011;38924;52.134;4.666;2022-08-24T04:04:20;544.08;;;504.02;;
53036;SDS011;38924;52.134;4.666;2022-08-24T04:06:52;574.28;;;531.78;;
53036;SDS011;38924;52.134;4.666;2022-08-24T04:09:18;528.55;;;490.58;;
53036;SDS011;38924;52.134;4.666;2022-08-24T04:11:46;488.00;;;453.65;;
53036;SDS011;38924;52.134;4.666;2022-08-24T04:14:13;570.38;;;527.85;;
53036;SDS011;38924;52.134;4.666;2022-08-24T04:16:41;556.97;;;512.53;;
53036;SDS011;38924;52.134;4.666;2022-08-24T04:19:20;566.42;;;524.25;;
53036;SDS011;38924;52.134;4.666;2022-08-24T04:21:46;545.75;;;505.67;;
53036;SDS011;38924;52.134;4.666;2022-08-24T04:24:12;541.55;;;502.40;;
53036;SDS011;38924;52.134;4.666;2022-08-24T04:26:39;555.67;;;511.92;;
53036;SDS011;38924;52.134;4.666;2022-08-24T04:29:05;569.08;;;523.47;;
53036;SDS011;38924;52.134;4.666;2022-08-24T04:31:37;581.83;;;538.10;;
53036;SDS011;38924;52.134;4.666;2022-08-24T04:34:04;527.45;;;488.73;;
53036;SDS011;38924;52.134;4.666;2022-08-24T04:36:31;608.75;;;563.92;;
53036;SDS011;38924;52.134;4.666;2022-08-24T04:38:57;575.67;;;532.13;;
53036;SDS011;38924;52.134;4.666;2022-08-24T04:41:48;503.15;;;467.98;;
53036;SDS011;38924;52.134;4.666;2022-08-24T04:44:15;499.13;;;462.35;;
53036;SDS011;38924;52.134;4.666;2022-08-24T04:46:41;566.33;;;524.05;;
53036;SDS011;38924;52.134;4.666;2022-08-24T04:49:07;570.33;;;528.38;;
53036;SDS011;38924;52.134;4.666;2022-08-24T04:51:34;539.38;;;499.45;;
53036;SDS011;38924;52.134;4.666;2022-08-24T04:54:00;537.40;;;498.50;;
53036;SDS011;38924;52.134;4.666;2022-08-24T04:56:25;460.75;;;427.77;;
53036;SDS011;38924;52.134;4.666;2022-08-24T04:58:55;529.15;;;490.52;;
53036;SDS011;38924;52.134;4.666;2022-08-24T05:01:25;581.47;;;538.72;;
53036;SDS011;38924;52.134;4.666;2022-08-24T05:03:51;622.85;;;576.55;;
53036;SDS011;38924;52.134;4.666;2022-08-24T05:06:20;625.53;;;577.92;;
53036;SDS011;38924;52.134;4.666;2022-08-24T05:08:46;559.97;;;518.67;;
53036;SDS011;38924;52.134;4.666;2022-08-24T05:11:13;477.45;;;443.98;;
53036;SDS011;38924;52.134;4.666;2022-08-24T05:13:39;509.90;;;473.50;;
53036;SDS011;38924;52.134;4.666;2022-08-24T05:16:09;606.80;;;561.05;;
53036;SDS011;38924;52.134;4.666;2022-08-24T05:18:35;598.08;;;553.47;;
53036;SDS011;38924;52.134;4.666;2022-08-24T05:21:05;493.23;;;456.75;;
53036;SDS011;38924;52.134;4.666;2022-08-24T05:23:31;596.03;;;551.33;;
53036;SDS011;38924;52.134;4.666;2022-08-24T05:26:07;523.90;;;486.00;;
53036;SDS011;38924;52.134;4.666;2022-08-24T05:28:33;479.85;;;444.95;;
53036;SDS011;38924;52.134;4.666;2022-08-24T05:31:07;583.35;;;539.65;;
53036;SDS011;38924;52.134;4.666;2022-08-24T05:33:33;488.85;;;453.27;;
53036;SDS011;38924;52.134;4.666;2022-08-24T05:36:00;620.72;;;573.92;;
53036;SDS011;38924;52.134;4.666;2022-08-24T05:38:26;556.45;;;515.55;;
53036;SDS011;38924;52.134;4.666;2022-08-24T05:40:54;641.35;;;593.30;;
53036;SDS011;38924;52.134;4.666;2022-08-24T05:43:26;561.13;;;518.47;;
53036;SDS011;38924;52.134;4.666;2022-08-24T05:45:51;568.97;;;525.97;;
53036;SDS011;38924;52.134;4.666;2022-08-24T05:48:17;604.47;;;558.90;;
53036;SDS011;38924;52.134;4.666;2022-08-24T05:51:03;643.10;;;595.05;;
53036;SDS011;38924;52.134;4.666;2022-08-24T05:53:33;629.63;;;581.53;;
53036;SDS011;38924;52.134;4.666;2022-08-24T05:56:08;631.85;;;583.80;;
53036;SDS011;38924;52.134;4.666;2022-08-24T05:58:35;499.80;;;462.73;;
53036;SDS011;38924;52.134;4.666;2022-08-24T06:01:09;622.53;;;575.35;;
53036;SDS011;38924;52.134;4.666;2022-08-24T06:06:03;482.38;;;447.10;;
53036;SDS011;38924;52.134;4.666;2022-08-24T06:08:30;551.95;;;509.80;;
53036;SDS011;38924;52.134;4.666;2022-08-24T06:10:58;684.78;;;632.13;;
53036;SDS011;38924;52.134;4.666;2022-08-24T06:13:26;650.28;;;599.67;;
53036;SDS011;38924;52.134;4.666;2022-08-24T06:16:00;722.05;;;666.60;;
53036;SDS011;38924;52.134;4.666;2022-08-24T06:18:26;580.00;;;536.15;;
53036;SDS011;38924;52.134;4.666;2022-08-24T06:20:52;621.88;;;575.28;;
53036;SDS011;38924;52.134;4.666;2022-08-24T06:23:18;762.38;;;702.00;;
53036;SDS011;38924;52.134;4.666;2022-08-24T06:25:51;707.00;;;650.90;;
53036;SDS011;38924;52.134;4.666;2022-08-24T06:28:36;654.20;;;603.95;;
53036;SDS011;38924;52.134;4.666;2022-08-24T06:31:08;699.38;;;646.58;;
53036;SDS011;38924;52.134;4.666;2022-08-24T06:33:35;631.20;;;582.78;;
53036;SDS011;38924;52.134;4.666;2022-08-24T06:36:01;670.38;;;616.83;;
53036;SDS011;38924;52.134;4.666;2022-08-24T06:38:27;714.38;;;658.15;;
53036;SDS011;38924;52.134;4.666;2022-08-24T06:40:53;785.17;;;720.53;;
53036;SDS011;38924;52.134;4.666;2022-08-24T06:43:19;869.47;;;794.70;;
53036;SDS011;38924;52.134;4.666;2022-08-24T06:45:49;938.70;;;854.75;;
53036;SDS011;38924;52.134;4.666;2022-08-24T06:48:17;762.83;;;696.67;;
53036;SDS011;38924;52.134;4.666;2022-08-24T06:50:44;838.80;;;761.95;;
53036;SDS011;38924;52.134;4.666;2022-08-24T06:53:09;830.42;;;755.15;;
53036;SDS011;38924;52.134;4.666;2022-08-24T06:55:49;849.22;;;771.53;;
53036;SDS011;38924;52.134;4.666;2022-08-24T06:58:15;888.28;;;804.90;;
53036;SDS011;38924;52.134;4.666;2022-08-24T07:00:41;961.47;;;868.42;;
53036;SDS011;38924;52.134;4.666;2022-08-24T07:03:07;885.95;;;800.88;;
53036;SDS011;38924;52.134;4.666;2022-08-24T07:05:34;857.97;;;775.90;;
53036;SDS011;38924;52.134;4.666;2022-08-24T07:08:18;819.57;;;742.33;;
53036;SDS011;38924;52.134;4.666;2022-08-24T07:10:44;885.47;;;802.58;;
53036;SDS011;38924;52.134;4.666;2022-08-24T07:13:11;937.17;;;844.17;;
53036;SDS011;38924;52.134;4.666;2022-08-24T07:15:37;901.70;;;811.35;;
53036;SDS011;38924;52.134;4.666;2022-08-24T07:18:11;920.08;;;827.75;;
53036;SDS011;38924;52.134;4.666;2022-08-24T07:20:40;965.88;;;864.90;;
53036;SDS011;38924;52.134;4.666;2022-08-24T07:23:22;974.35;;;875.03;;
53036;SDS011;38924;52.134;4.666;2022-08-24T07:25:49;1011.85;;;902.47;;
53036;SDS011;38924;52.134;4.666;2022-08-24T07:28:19;1045.22;;;924.47;;
53036;SDS011;38924;52.134;4.666;2022-08-24T07:30:48;1039.18;;;928.42;;
53036;SDS011;38924;52.134;4.666;2022-08-24T07:33:16;1107.65;;;972.60;;
53036;SDS011;38924;52.134;4.666;2022-08-24T07:35:44;1011.00;;;901.17;;
53036;SDS011;38924;52.134;4.666;2022-08-24T07:38:10;1133.80;;;975.72;;
53036;SDS011;38924;52.134;4.666;2022-08-24T07:40:37;1051.32;;;934.78;;
53036;SDS011;38924;52.134;4.666;2022-08-24T07:43:03;1068.82;;;950.67;;
53036;SDS011;38924;52.134;4.666;2022-08-24T07:45:28;1101.25;;;952.83;;
53036;SDS011;38924;52.134;4.666;2022-08-24T07:47:54;1090.05;;;962.35;;
53036;SDS011;38924;52.134;4.666;2022-08-24T07:50:42;1059.35;;;945.33;;
53036;SDS011;38924;52.134;4.666;2022-08-24T07:53:08;1070.43;;;956.25;;
53036;SDS011;38924;52.134;4.666;2022-08-24T07:55:34;1085.45;;;965.50;;
53036;SDS011;38924;52.134;4.666;2022-08-24T07:58:00;1066.75;;;953.17;;
53036;SDS011;38924;52.134;4.666;2022-08-24T08:00:26;1035.63;;;926.88;;
53036;SDS011;38924;52.134;4.666;2022-08-24T08:02:58;1070.93;;;954.65;;
53036;SDS011;38924;52.134;4.666;2022-08-24T08:05:24;1055.43;;;945.05;;
53036;SDS011;38924;52.134;4.666;2022-08-24T08:07:51;1036.85;;;927.08;;
53036;SDS011;38924;52.134;4.666;2022-08-24T08:10:17;1058.63;;;946.25;;
53036;SDS011;38924;52.134;4.666;2022-08-24T08:12:44;1061.78;;;948.90;;
53036;SDS011;38924;52.134;4.666;2022-08-24T08:15:10;1085.05;;;969.40;;
53036;SDS011;38924;52.134;4.666;2022-08-24T08:17:42;1066.47;;;952.10;;
53036;SDS011;38924;52.134;4.666;2022-08-24T08:20:08;1087.55;;;974.90;;
53036;SDS011;38924;52.134;4.666;2022-08-24T08:22:34;1096.30;;;979.58;;
53036;SDS011;38924;52.134;4.666;2022-08-24T08:25:38;1053.10;;;942.00;;
53036;SDS011;38924;52.134;4.666;2022-08-24T08:28:12;1083.70;;;970.85;;
53036;SDS011;38924;52.134;4.666;2022-08-24T08:30:38;1090.13;;;977.65;;
53036;SDS011;38924;52.134;4.666;2022-08-24T08:33:07;1068.22;;;957.50;;
53036;SDS011;38924;52.134;4.666;2022-08-24T08:35:33;1093.43;;;984.15;;
53036;SDS011;38924;52.134;4.666;2022-08-24T08:37:59;1099.13;;;985.80;;
53036;SDS011;38924;52.134;4.666;2022-08-24T08:43:18;1094.63;;;983.17;;
53036;SDS011;38924;52.134;4.666;2022-08-24T08:48:47;1087.20;;;979.10;;
53036;SDS011;38924;52.134;4.666;2022-08-24T08:56:45;1077.55;;;972.13;;
53036;SDS011;38924;52.134;4.666;2022-08-24T08:59:31;1069.22;;;965.50;;
53036;SDS011;38924;52.134;4.666;2022-08-24T09:12:41;1105.13;;;996.13;;
53036;SDS011;38924;52.134;4.666;2022-08-24T09:15:13;1055.93;;;949.92;;
53036;SDS011;38924;52.134;4.666;2022-08-24T09:22:56;1082.85;;;970.45;;
53036;SDS011;38924;52.134;4.666;2022-08-24T09:25:23;1117.60;;;998.88;;
53036;SDS011;38924;52.134;4.666;2022-08-24T09:28:13;1101.80;;;991.72;;
53036;SDS011;38924;52.134;4.666;2022-08-24T09:30:47;1103.57;;;993.45;;
53036;SDS011;38924;52.134;4.666;2022-08-24T09:33:21;1117.53;;;995.95;;
53036;SDS011;38924;52.134;4.666;2022-08-24T09:54:22;1149.95;;;999.90;;
53036;SDS011;38924;52.134;4.666;2022-08-24T10:07:06;1135.85;;;999.90;;
53036;SDS011;38924;52.134;4.666;2022-08-24T10:15:13;1093.82;;;985.35;;
53036;SDS011;38924;52.134;4.666;2022-08-24T10:17:49;1077.38;;;966.65;;
53036;SDS011;38924;52.134;4.666;2022-08-24T10:25:39;1126.13;;;999.90;;
53036;SDS011;38924;52.134;4.666;2022-08-24T10:33:22;1104.93;;;992.55;;
53036;SDS011;38924;52.134;4.666;2022-08-24T10:44:10;1118.55;;;998.47;;
53036;SDS011;38924;52.134;4.666;2022-08-24T10:46:43;1070.90;;;959.47;;
53036;SDS011;38924;52.134;4.666;2022-08-24T10:54:22;1105.78;;;996.47;;
53036;SDS011;38924;52.134;4.666;2022-08-24T11:01:58;1107.38;;;996.38;;
53036;SDS011;38924;52.134;4.666;2022-08-24T11:04:25;1114.05;;;998.38;;
53036;SDS011;38924;52.134;4.666;2022-08-24T11:09:55;1107.07;;;995.00;;
53036;SDS011;38924;52.134;4.666;2022-08-24T11:14:55;1095.57;;;989.33;;
53036;SDS011;38924;52.134;4.666;2022-08-24T11:17:22;1121.10;;;999.90;;
53036;SDS011;38924;52.134;4.666;2022-08-24T11:19:49;1084.72;;;980.15;;
53036;SDS011;38924;52.134;4.666;2022-08-24T11:24:51;1085.07;;;982.45;;
53036;SDS011;38924;52.134;4.666;2022-08-24T11:35:45;1080.95;;;979.28;;
53036;SDS011;38924;52.134;4.666;2022-08-24T11:37:56;1094.85;;;991.17;;
53036;SDS011;38924;52.134;4.666;2022-08-24T11:40:26;1098.38;;;993.22;;
53036;SDS011;38924;52.134;4.666;2022-08-24T11:42:56;1103.28;;;996.78;;
53036;SDS011;38924;52.134;4.666;2022-08-24T11:45:33;1136.07;;;999.90;;
53036;SDS011;38924;52.134;4.666;2022-08-24T11:50:52;1108.28;;;998.40;;
53036;SDS011;38924;52.134;4.666;2022-08-24T11:56:16;1079.95;;;978.05;;
53036;SDS011;38924;52.134;4.666;2022-08-24T12:01:48;1079.45;;;974.85;;
53036;SDS011;38924;52.134;4.666;2022-08-24T12:12:25;1113.95;;;999.67;;
53036;SDS011;38924;52.134;4.666;2022-08-24T12:14:56;1114.78;;;999.90;;
53036;SDS011;38924;52.134;4.666;2022-08-24T12:19:52;1096.70;;;986.45;;
53036;SDS011;38924;52.134;4.666;2022-08-24T12:22:19;1078.63;;;966.08;;
53036;SDS011;38924;52.134;4.666;2022-08-24T12:24:50;1099.55;;;988.95;;
53036;SDS011;38924;52.134;4.666;2022-08-24T12:27:18;1071.88;;;959.97;;
53036;SDS011;38924;52.134;4.666;2022-08-24T12:29:58;1063.97;;;957.50;;
53036;SDS011;38924;52.134;4.666;2022-08-24T12:32:30;1064.43;;;953.13;;
53036;SDS011;38924;52.134;4.666;2022-08-24T12:37:32;1088.43;;;981.85;;
53036;SDS011;38924;52.134;4.666;2022-08-24T12:42:32;1134.40;;;999.90;;
53036;SDS011;38924;52.134;4.666;2022-08-24T12:44:59;1152.28;;;999.90;;
53036;SDS011;38924;52.134;4.666;2022-08-24T12:47:27;1106.45;;;996.78;;
53036;SDS011;38924;52.134;4.666;2022-08-24T12:53:10;1135.25;;;999.90;;
53036;SDS011;38924;52.134;4.666;2022-08-24T12:58:28;1090.15;;;984.97;;
53036;SDS011;38924;52.134;4.666;2022-08-24T13:00:57;1140.40;;;999.90;;
53036;SDS011;38924;52.134;4.666;2022-08-24T13:03:32;1118.03;;;998.72;;
53036;SDS011;38924;52.134;4.666;2022-08-24T13:06:03;1121.18;;;999.90;;
53036;SDS011;38924;52.134;4.666;2022-08-24T13:11:44;1141.80;;;999.90;;
53036;SDS011;38924;52.134;4.666;2022-08-24T13:19:10;1113.85;;;997.05;;
53036;SDS011;38924;52.134;4.666;2022-08-24T13:21:38;1116.63;;;998.92;;
53036;SDS011;38924;52.134;4.666;2022-08-24T13:29:15;1119.50;;;999.90;;
53036;SDS011;38924;52.134;4.666;2022-08-24T13:31:48;1106.88;;;995.65;;
53036;SDS011;38924;52.134;4.666;2022-08-24T13:47:33;1088.32;;;981.03;;
53036;SDS011;38924;52.134;4.666;2022-08-24T13:50:29;1137.55;;;999.90;;
53036;SDS011;38924;52.134;4.666;2022-08-24T14:00:56;1072.97;;;969.90;;
53036;SDS011;38924;52.134;4.666;2022-08-24T14:06:20;1070.45;;;968.40;;
53036;SDS011;38924;52.134;4.666;2022-08-24T14:09:00;1100.50;;;992.47;;
53036;SDS011;38924;52.134;4.666;2022-08-24T14:11:34;1117.13;;;999.85;;
53036;SDS011;38924;52.134;4.666;2022-08-24T14:14:08;1063.20;;;961.33;;
53036;SDS011;38924;52.134;4.666;2022-08-24T14:19:46;1086.95;;;983.47;;
53036;SDS011;38924;52.134;4.666;2022-08-24T14:23:17;1102.63;;;991.95;;
53036;SDS011;38924;52.134;4.666;2022-08-24T14:25:19;1117.43;;;999.05;;
53036;SDS011;38924;52.134;4.666;2022-08-24T14:32:45;1106.10;;;995.40;;
53036;SDS011;38924;52.134;4.666;2022-08-24T14:35:31;1084.50;;;977.65;;
53036;SDS011;38924;52.134;4.666;2022-08-24T14:40:33;1109.90;;;999.10;;
53036;SDS011;38924;52.134;4.666;2022-08-24T14:45:38;1073.00;;;970.50;;
53036;SDS011;38924;52.134;4.666;2022-08-24T14:51:12;1043.28;;;941.72;;
53036;SDS011;38924;52.134;4.666;2022-08-24T14:53:46;1064.15;;;960.92;;
53036;SDS011;38924;52.134;4.666;2022-08-24T14:56:19;1086.60;;;979.95;;
53036;SDS011;38924;52.134;4.666;2022-08-24T14:59:06;1086.07;;;981.05;;
53036;SDS011;38924;52.134;4.666;2022-08-24T15:01:39;1047.93;;;945.40;;
53036;SDS011;38924;52.134;4.666;2022-08-24T15:06:48;1104.22;;;992.42;;
53036;SDS011;38924;52.134;4.666;2022-08-24T15:09:22;1048.90;;;947.30;;
53036;SDS011;38924;52.134;4.666;2022-08-24T15:11:49;1054.90;;;951.17;;
53036;SDS011;38924;52.134;4.666;2022-08-24T15:17:14;1057.50;;;951.17;;
53036;SDS011;38924;52.134;4.666;2022-08-24T15:22:25;1068.60;;;960.63;;
53036;SDS011;38924;52.134;4.666;2022-08-24T15:24:59;1047.47;;;940.33;;
53036;SDS011;38924;52.134;4.666;2022-08-24T15:29:54;1050.55;;;943.47;;
53036;SDS011;38924;52.134;4.666;2022-08-24T15:32:21;1042.82;;;938.85;;
53036;SDS011;38924;52.134;4.666;2022-08-24T15:34:48;1094.20;;;977.05;;
53036;SDS011;38924;52.134;4.666;2022-08-24T15:37:23;1030.00;;;921.15;;
53036;SDS011;38924;52.134;4.666;2022-08-24T15:39:49;1089.05;;;971.28;;
53036;SDS011;38924;52.134;4.666;2022-08-24T15:42:14;1074.05;;;961.35;;
53036;SDS011;38924;52.134;4.666;2022-08-24T15:44:42;1072.93;;;959.97;;
53036;SDS011;38924;52.134;4.666;2022-08-24T15:47:25;1093.82;;;980.53;;
53036;SDS011;38924;52.134;4.666;2022-08-24T15:50:02;1084.90;;;968.35;;
53036;SDS011;38924;52.134;4.666;2022-08-24T15:54:55;1076.22;;;959.58;;
53036;SDS011;38924;52.134;4.666;2022-08-24T15:57:26;1079.18;;;966.65;;
53036;SDS011;38924;52.134;4.666;2022-08-24T15:59:54;1094.07;;;974.88;;
53036;SDS011;38924;52.134;4.666;2022-08-24T16:02:34;1066.93;;;952.70;;
53036;SDS011;38924;52.134;4.666;2022-08-24T16:07:57;1062.38;;;951.33;;
53036;SDS011;38924;52.134;4.666;2022-08-24T16:32:03;1061.43;;;951.20;;
53036;SDS011;38924;52.134;4.666;2022-08-24T16:34:30;1064.60;;;954.47;;
53036;SDS011;38924;52.134;4.666;2022-08-24T16:36:57;1057.47;;;949.17;;
53036;SDS011;38924;52.134;4.666;2022-08-24T16:39:22;1074.75;;;957.63;;
53036;SDS011;38924;52.134;4.666;2022-08-24T16:41:49;1084.28;;;968.53;;
53036;SDS011;38924;52.134;4.666;2022-08-24T16:44:15;1038.30;;;929.47;;
53036;SDS011;38924;52.134;4.666;2022-08-24T16:46:41;1091.55;;;976.83;;
53036;SDS011;38924;52.134;4.666;2022-08-24T16:49:06;1045.80;;;937.03;;
53036;SDS011;38924;52.134;4.666;2022-08-24T16:51:32;1083.68;;;970.17;;
53036;SDS011;38924;52.134;4.666;2022-08-24T16:53:58;1063.25;;;953.05;;
53036;SDS011;38924;52.134;4.666;2022-08-24T16:56:24;1059.88;;;948.10;;
53036;SDS011;38924;52.134;4.666;2022-08-24T16:58:50;1061.22;;;949.33;;
53036;SDS011;38924;52.134;4.666;2022-08-24T17:01:17;1071.55;;;957.05;;
53036;SDS011;38924;52.134;4.666;2022-08-24T17:03:44;1064.88;;;950.63;;
53036;SDS011;38924;52.134;4.666;2022-08-24T17:06:10;1098.45;;;980.47;;
53036;SDS011;38924;52.134;4.666;2022-08-24T17:08:37;1079.35;;;965.50;;
53036;SDS011;38924;52.134;4.666;2022-08-24T17:11:02;1074.53;;;958.35;;
53036;SDS011;38924;52.134;4.666;2022-08-24T17:13:29;1052.80;;;939.13;;
53036;SDS011;38924;52.134;4.666;2022-08-24T17:15:55;1075.07;;;958.65;;
53036;SDS011;38924;52.134;4.666;2022-08-24T17:18:21;1090.38;;;971.95;;
53036;SDS011;38924;52.134;4.666;2022-08-24T17:20:48;1070.20;;;956.67;;
53036;SDS011;38924;52.134;4.666;2022-08-24T17:23:14;1107.60;;;985.60;;
53036;SDS011;38924;52.134;4.666;2022-08-24T17:25:43;1031.38;;;921.50;;
53036;SDS011;38924;52.134;4.666;2022-08-24T17:28:09;1075.97;;;959.63;;
53036;SDS011;38924;52.134;4.666;2022-08-24T17:30:39;1107.85;;;972.38;;
53036;SDS011;38924;52.134;4.666;2022-08-24T17:33:04;1064.55;;;948.58;;
53036;SDS011;38924;52.134;4.666;2022-08-24T17:35:30;1026.65;;;910.88;;
53036;SDS011;38924;52.134;4.666;2022-08-24T17:37:56;1104.75;;;979.58;;
53036;SDS011;38924;52.134;4.666;2022-08-24T17:40:23;1053.70;;;940.00;;
53036;SDS011;38924;52.134;4.666;2022-08-24T17:42:49;1014.55;;;904.40;;
53036;SDS011;38924;52.134;4.666;2022-08-24T17:45:18;1047.80;;;932.42;;
53036;SDS011;38924;52.134;4.666;2022-08-24T17:47:44;1022.60;;;911.95;;
53036;SDS011;38924;52.134;4.666;2022-08-24T17:50:11;1075.00;;;944.00;;
53036;SDS011;38924;52.134;4.666;2022-08-24T17:52:38;1031.85;;;918.88;;